Time;durP1;ratioP1;P1;durP2;ratioP2;P2;SDS_P1;SDS_P2;PMS_P1;PMS_P2;Temp;Humidity;BMP_temperature;BMP_pressure;BME280_temperature;BME280_humidity;BME280_pressure;Samples;Min_cycle;Max_cycle;Signal;HPM_P1;HPM_P2
2023/05/19 00:00:59;;;;;;;27.00;22.30;;;;;;;20.13;50.49;100164.70;106177;1256;75701;-72
2023/05/19 00:03:26;;;;;;;26.70;22.20;;;;;;;20.09;50.61;100167.23;105875;1258;72166;-71
2023/05/19 00:05:54;;;;;;;25.50;20.90;;;;;;;20.03;50.89;100168.49;105886;1259;74724;-72
2023/05/19 00:08:22;;;;;;;25.60;21.70;;;;;;;19.98;50.90;100164.71;106022;1253;60511;-72
2023/05/19 00:10:49;;;;;;;28.30;21.90;;;;;;;19.96;51.01;100163.77;106064;1257;60344;-71
2023/05/19 00:13:16;;;;;;;28.90;22.30;;;;;;;19.95;51.18;100165.98;106022;1257;74861;-74
2023/05/19 00:15:43;;;;;;;24.30;19.40;;;;;;;19.94;51.25;100173.65;106094;1256;70928;-74
2023/05/19 00:18:12;;;;;;;21.50;19.20;;;;;;;19.91;51.52;100174.77;105996;1256;74978;-71
2023/05/19 00:20:40;;;;;;;28.30;19.70;;;;;;;19.86;51.48;100176.86;105943;1256;60549;-73
2023/05/19 00:23:07;;;;;;;22.00;18.50;;;;;;;19.82;51.59;100174.70;105950;1256;63237;-74
2023/05/19 00:25:33;;;;;;;23.60;19.10;;;;;;;19.79;51.74;100170.20;105928;1251;76158;-73
2023/05/19 00:28:01;;;;;;;24.80;18.90;;;;;;;19.75;51.76;100172.46;105932;1251;72394;-72
2023/05/19 00:30:29;;;;;;;24.70;17.90;;;;;;;19.75;51.85;100173.67;105897;1251;73928;-75
2023/05/19 00:32:56;;;;;;;21.30;17.20;;;;;;;19.74;51.85;100171.77;105935;1253;61933;-74
2023/05/19 00:35:23;;;;;;;18.70;15.80;;;;;;;19.74;51.92;100176.63;105912;1251;62570;-73
2023/05/19 00:37:50;;;;;;;18.80;16.00;;;;;;;19.74;52.10;100177.55;105939;1251;75887;-74
2023/05/19 00:40:17;;;;;;;22.10;15.50;;;;;;;19.73;52.39;100179.06;106070;1256;71229;-69
2023/05/19 00:42:44;;;;;;;19.10;15.80;;;;;;;19.72;53.01;100181.40;105928;1254;72054;-72
2023/05/19 00:45:11;;;;;;;22.80;15.50;;;;;;;19.70;53.25;100183.35;105961;1254;61223;-71
2023/05/19 00:47:38;;;;;;;17.40;14.70;;;;;;;19.67;53.13;100183.31;105874;1251;61707;-71
2023/05/19 00:50:05;;;;;;;18.90;14.80;;;;;;;19.65;53.27;100185.65;105975;1251;75501;-75
2023/05/19 00:52:32;;;;;;;19.50;13.70;;;;;;;19.61;53.19;100189.53;105834;1255;71556;-72
2023/05/19 00:54:59;;;;;;;19.60;14.40;;;;;;;19.58;53.16;100194.31;105747;1250;74315;-72
2023/05/19 00:57:26;;;;;;;20.80;14.20;;;;;;;19.55;53.29;100191.27;105817;1251;62497;-72
2023/05/19 00:59:54;;;;;;;17.90;14.50;;;;;;;19.53;53.30;100191.94;105832;1260;61649;-71
2023/05/19 01:02:20;;;;;;;17.30;14.10;;;;;;;19.51;53.39;100193.37;105752;1254;74628;-71
2023/05/19 01:04:48;;;;;;;16.90;13.80;;;;;;;19.48;53.50;100191.85;105846;1257;70714;-72
2023/05/19 01:07:15;;;;;;;17.40;14.60;;;;;;;19.43;53.67;100194.92;105969;1256;75107;-74
2023/05/19 01:09:42;;;;;;;18.90;14.80;;;;;;;19.41;53.82;100191.89;105870;1251;61180;-70
2023/05/19 01:12:09;;;;;;;20.20;14.10;;;;;;;19.38;53.96;100197.66;105819;1254;60742;-71
2023/05/19 01:14:36;;;;;;;16.60;14.20;;;;;;;19.35;53.97;100203.22;105840;1251;76045;-71
2023/05/19 01:17:07;;;;;;;16.20;14.60;;;;;;;19.34;54.11;100204.39;105489;1251;71138;-70
2023/05/19 01:19:49;;;;;;;17.40;13.50;;;;;;;19.32;54.18;100205.39;105447;1251;74424;-70
2023/05/19 01:22:55;;;;;;;19.70;14.00;;;;;;;19.29;54.35;100212.90;105793;1254;62441;-70
2023/05/19 01:25:53;;;;;;;17.20;13.00;;;;;;;19.27;54.42;100211.00;105876;1251;62223;-73
2023/05/19 01:28:42;;;;;;;18.30;12.70;;;;;;;19.25;54.51;100216.48;105886;1256;75871;-73
2023/05/19 01:31:10;;;;;;;14.00;12.40;;;;;;;19.24;54.78;100217.52;105608;1251;70583;-72
2023/05/19 01:33:38;;;;;;;24.00;13.00;;;;;;;19.24;55.27;100218.40;105906;1254;74740;-70
2023/05/19 01:36:05;;;;;;;12.70;10.90;;;;;;;19.23;55.93;100219.52;105799;1254;62488;-68
2023/05/19 01:38:33;;;;;;;15.80;11.60;;;;;;;19.22;56.32;100216.73;105542;1254;62533;-70
2023/05/19 01:41:00;;;;;;;11.50;10.30;;;;;;;19.20;56.26;100216.63;105975;1251;75260;-69
2023/05/19 01:43:27;;;;;;;12.50;10.30;;;;;;;19.19;56.01;100216.41;105319;1251;70309;-70
2023/05/19 01:45:54;;;;;;;14.10;10.50;;;;;;;19.17;55.99;100219.04;105859;1254;73707;-73
2023/05/19 01:48:21;;;;;;;11.50;10.40;;;;;;;19.16;55.90;100219.51;106049;1254;62613;-72
2023/05/19 01:50:48;;;;;;;12.40;10.40;;;;;;;19.17;55.87;100218.77;105893;1251;60505;-72
2023/05/19 01:53:15;;;;;;;16.00;9.30;;;;;;;19.17;55.88;100219.46;105906;1252;72610;-73
2023/05/19 01:55:48;;;;;;;15.70;9.80;;;;;;;19.18;56.19;100217.34;105893;1251;71973;-74
2023/05/19 01:58:37;;;;;;;13.20;10.20;;;;;;;19.18;57.35;100227.95;105983;1254;72556;-76
2023/05/19 02:01:20;;;;;;;10.70;9.00;;;;;;;19.14;57.65;100232.44;105925;1257;61430;-73
2023/05/19 02:04:00;;;;;;;9.70;8.70;;;;;;;19.10;58.02;100225.70;105966;1257;60363;-73
2023/05/19 02:06:50;;;;;;;13.80;9.30;;;;;;;19.05;57.58;100225.76;105924;1256;72390;-72
2023/05/19 02:09:40;;;;;;;9.60;8.20;;;;;;;19.02;57.44;100229.20;105862;1251;72228;-72
2023/05/19 02:12:11;;;;;;;14.80;10.20;;;;;;;19.00;57.67;100228.55;105888;1251;74689;-72
2023/05/19 02:14:45;;;;;;;10.70;8.60;;;;;;;18.97;57.75;100227.60;105918;1254;61191;-71
2023/05/19 02:17:12;;;;;;;11.50;8.70;;;;;;;18.95;57.92;100233.98;105957;1251;60537;-71
2023/05/19 02:19:39;;;;;;;14.50;9.90;;;;;;;18.93;58.31;100230.42;105824;1257;75960;-71
2023/05/19 02:22:05;;;;;;;9.80;8.20;;;;;;;18.90;58.53;100231.73;105884;1251;71879;-73
2023/05/19 02:24:32;;;;;;;12.80;8.20;;;;;;;18.87;58.78;100237.89;105874;1251;74853;-72
2023/05/19 02:26:59;;;;;;;11.70;8.70;;;;;;;18.85;59.08;100239.77;105863;1253;60959;-70
2023/05/19 02:29:26;;;;;;;9.40;7.60;;;;;;;18.83;59.50;100237.77;105879;1257;62556;-73
2023/05/19 02:31:53;;;;;;;10.80;8.50;;;;;;;18.80;59.71;100241.35;105903;1253;76303;-70
2023/05/19 02:34:20;;;;;;;12.40;7.50;;;;;;;18.79;59.89;100236.98;105847;1251;72343;-71
2023/05/19 02:36:51;;;;;;;11.20;7.40;;;;;;;18.79;59.97;100234.08;106017;1251;74494;-73
2023/05/19 02:39:18;;;;;;;9.20;7.90;;;;;;;18.80;60.10;100229.00;105964;1254;61273;-72
2023/05/19 02:41:46;;;;;;;8.20;7.30;;;;;;;18.81;60.19;100231.58;105975;1256;62812;-72
2023/05/19 02:44:13;;;;;;;10.60;7.20;;;;;;;18.82;60.35;100230.03;105927;1259;73659;-73
2023/05/19 02:46:39;;;;;;;11.60;6.70;;;;;;;18.82;60.39;100234.10;105961;1257;71480;-73
2023/05/19 02:49:06;;;;;;;9.90;7.40;;;;;;;18.82;60.37;100235.66;105950;1251;74826;-72
2023/05/19 02:51:33;;;;;;;10.30;7.40;;;;;;;18.83;60.37;100242.50;105924;1251;60751;-71
2023/05/19 02:54:00;;;;;;;9.90;7.00;;;;;;;18.84;60.52;100246.43;105902;1256;62163;-70
2023/05/19 02:56:27;;;;;;;11.50;6.80;;;;;;;18.82;60.64;100250.83;105947;1251;75669;-74
2023/05/19 02:58:55;;;;;;;9.10;6.50;;;;;;;18.80;60.78;100259.44;105879;1251;72305;-71
2023/05/19 03:01:21;;;;;;;11.10;7.00;;;;;;;18.80;60.89;100260.59;105840;1251;74639;-71
2023/05/19 03:03:48;;;;;;;8.70;7.40;;;;;;;18.80;61.00;100260.58;105914;1252;60535;-72
2023/05/19 03:06:16;;;;;;;9.60;7.40;;;;;;;18.80;60.98;100261.27;105224;1251;895406;-71
2023/05/19 03:10:07;;;;;;;8.50;7.30;;;;;;;18.83;61.18;100258.95;102553;1292;601805;-71
2023/05/19 03:12:34;;;;;;;11.60;7.00;;;;;;;18.83;61.13;100263.05;105131;1272;60564;-71
2023/05/19 03:15:02;;;;;;;10.50;7.40;;;;;;;18.83;61.05;100268.52;105080;1266;60782;-71
2023/05/19 03:17:32;;;;;;;10.00;7.10;;;;;;;18.84;61.09;100268.96;105059;1272;73172;-72
2023/05/19 03:20:00;;;;;;;11.90;7.30;;;;;;;18.86;61.27;100271.23;105297;1266;70513;-72
2023/05/19 03:22:27;;;;;;;10.40;7.10;;;;;;;18.89;61.59;100271.89;104902;1266;187292;-73
2023/05/19 03:24:54;;;;;;;11.70;7.10;;;;;;;18.92;61.70;100274.04;105283;1269;59683;-73
2023/05/19 03:27:20;;;;;;;10.20;7.40;;;;;;;18.93;61.74;100272.39;105347;1269;60456;-74
2023/05/19 03:29:47;;;;;;;9.20;6.30;;;;;;;18.95;61.64;100272.21;105023;1270;71793;-74
2023/05/19 03:32:14;;;;;;;11.10;7.00;;;;;;;18.95;61.49;100270.67;105200;1268;71540;-72
2023/05/19 03:34:41;;;;;;;9.80;7.20;;;;;;;18.97;61.44;100276.19;105199;1269;73662;-71
2023/05/19 03:37:09;;;;;;;8.50;7.00;;;;;;;18.98;61.38;100273.95;105193;1264;61401;-72
2023/05/19 03:39:36;;;;;;;9.40;6.70;;;;;;;18.98;61.29;100274.60;105271;1264;61353;-74
2023/05/19 03:42:03;;;;;;;10.00;7.20;;;;;;;18.99;61.34;100280.20;105118;1267;71830;-72
2023/05/19 03:44:30;;;;;;;10.60;7.10;;;;;;;19.00;61.48;100277.49;105164;1263;70454;-72
2023/05/19 03:46:58;;;;;;;8.50;6.80;;;;;;;19.01;61.60;100287.60;105087;1267;71337;-74
2023/05/19 03:49:47;;;;;;;10.50;6.70;;;;;;;19.02;61.67;100288.39;105160;1269;61464;-71
2023/05/19 03:52:33;;;;;;;9.90;7.80;;;;;;;19.02;61.78;100286.61;105087;1267;60610;-72
2023/05/19 03:55:08;;;;;;;7.80;7.00;;;;;;;19.02;62.01;100280.30;105224;1268;73222;-72
2023/05/19 03:57:36;;;;;;;11.20;7.50;;;;;;;19.02;62.00;100282.67;105075;1269;71635;-72
2023/05/19 04:00:04;;;;;;;10.40;6.50;;;;;;;19.02;62.03;100277.82;105820;1259;71621;-72
2023/05/19 04:02:39;;;;;;;7.00;6.30;;;;;;;19.03;61.94;100283.04;106025;1257;60070;-72
2023/05/19 04:05:07;;;;;;;9.40;7.50;;;;;;;19.06;61.89;100282.77;105822;1257;60408;-72
2023/05/19 04:07:34;;;;;;;8.00;6.80;;;;;;;19.08;61.90;100286.23;105877;1254;73266;-72
2023/05/19 04:10:05;;;;;;;8.80;6.20;;;;;;;19.08;61.93;100291.94;105984;1257;69757;-71
2023/05/19 04:12:32;;;;;;;9.90;6.50;;;;;;;19.08;62.04;100287.97;106032;1255;71688;-71
2023/05/19 04:14:58;;;;;;;11.40;5.80;;;;;;;19.08;62.03;100288.75;106060;1251;59481;-72
2023/05/19 04:17:25;;;;;;;11.40;6.40;;;;;;;19.04;62.19;100291.92;105928;1251;59943;-73
2023/05/19 04:19:53;;;;;;;14.40;7.00;;;;;;;19.02;62.27;100296.02;105851;1258;73789;-73
2023/05/19 04:22:21;;;;;;;13.40;6.80;;;;;;;19.00;62.42;100300.36;105772;1260;70407;-71
2023/05/19 04:24:49;;;;;;;8.70;6.70;;;;;;;18.99;62.62;100302.86;105919;1253;73818;-72
2023/05/19 04:27:16;;;;;;;9.80;6.00;;;;;;;18.99;62.59;100307.54;105942;1254;60301;-71
2023/05/19 04:29:44;;;;;;;8.80;6.90;;;;;;;18.98;62.70;100306.88;105604;1259;59641;-71
2023/05/19 04:32:16;;;;;;;10.10;5.80;;;;;;;18.99;62.75;100309.29;105921;1257;72250;-70
2023/05/19 04:34:46;;;;;;;10.90;6.60;;;;;;;18.99;63.00;100308.83;105964;1256;70337;-71
2023/05/19 04:37:16;;;;;;;10.90;6.30;;;;;;;18.96;63.17;100312.80;105784;1257;71184;-72
2023/05/19 04:39:44;;;;;;;9.40;6.40;;;;;;;18.93;63.27;100315.91;105885;1259;60541;-71
2023/05/19 04:42:12;;;;;;;9.90;6.40;;;;;;;18.88;63.57;100318.11;105877;1251;60512;-70
2023/05/19 04:44:39;;;;;;;9.50;5.90;;;;;;;18.86;63.48;100317.94;105664;1259;72122;-71
2023/05/19 04:47:07;;;;;;;8.90;5.80;;;;;;;18.85;63.50;100322.84;105795;1255;69582;-71
2023/05/19 04:49:37;;;;;;;10.00;6.00;;;;;;;18.86;63.61;100323.70;105961;1256;71790;-71
2023/05/19 04:52:05;;;;;;;9.10;6.50;;;;;;;18.84;63.67;100324.23;106083;1257;60449;-73
2023/05/19 04:54:36;;;;;;;8.00;6.00;;;;;;;18.84;63.66;100324.50;105846;1257;59890;-72
2023/05/19 04:57:03;;;;;;;10.50;6.40;;;;;;;18.85;63.67;100320.39;105798;1260;73237;-70
2023/05/19 04:59:31;;;;;;;7.10;6.10;;;;;;;18.85;63.69;100322.50;105909;1259;69618;-73
2023/05/19 05:01:58;;;;;;;9.40;5.80;;;;;;;18.86;63.61;100325.06;105886;1256;70894;-70
2023/05/19 05:04:27;;;;;;;6.90;6.00;;;;;;;18.88;63.56;100326.15;106107;1251;59717;-71
2023/05/19 05:06:53;;;;;;;10.40;6.40;;;;;;;18.88;63.51;100326.98;105960;1257;60534;-72
2023/05/19 05:09:20;;;;;;;10.00;6.30;;;;;;;18.90;63.56;100329.05;106158;1257;73064;-73
2023/05/19 05:11:48;;;;;;;7.90;6.40;;;;;;;18.94;63.59;100329.54;106223;1260;68129;-71
2023/05/19 05:14:15;;;;;;;9.80;5.70;;;;;;;18.98;63.60;100332.96;106122;1254;72966;-72
2023/05/19 05:16:42;;;;;;;9.40;6.40;;;;;;;19.01;63.44;100330.40;105932;1254;60527;-72
2023/05/19 05:19:11;;;;;;;8.40;5.80;;;;;;;19.02;63.43;100329.52;105953;1257;60474;-71
2023/05/19 05:21:38;;;;;;;8.70;5.90;;;;;;;19.04;63.42;100334.00;105964;1257;72121;-70
2023/05/19 05:24:07;;;;;;;8.70;5.40;;;;;;;19.02;63.39;100334.86;105990;1252;70892;-71
2023/05/19 05:26:35;;;;;;;13.00;6.10;;;;;;;19.04;63.37;100340.10;106535;1255;71738;-72
2023/05/19 05:29:02;;;;;;;8.20;6.30;;;;;;;19.05;63.48;100345.31;106403;1254;59728;-72
2023/05/19 05:31:30;;;;;;;11.40;6.10;;;;;;;19.07;63.47;100347.38;106428;1257;61338;-72
2023/05/19 05:33:57;;;;;;;11.50;7.20;;;;;;;19.08;63.59;100350.64;106429;1257;74209;-72
2023/05/19 05:36:26;;;;;;;10.50;6.20;;;;;;;19.09;63.46;100352.18;106418;1257;70390;-72
2023/05/19 05:38:53;;;;;;;8.60;6.70;;;;;;;19.10;63.49;100357.73;106293;1258;73070;-71
2023/05/19 05:41:20;;;;;;;8.50;5.60;;;;;;;19.13;63.45;100358.59;106155;1254;60610;-74
2023/05/19 05:43:49;;;;;;;8.40;6.20;;;;;;;19.15;63.40;100361.19;106712;1253;59612;-71
2023/05/19 05:46:17;;;;;;;13.40;6.60;;;;;;;19.16;63.37;100356.69;106689;1254;74071;-71
2023/05/19 05:48:44;;;;;;;12.60;6.70;;;;;;;19.20;63.38;100360.74;107323;1255;68582;-74
2023/05/19 05:51:11;;;;;;;13.50;6.80;;;;;;;19.22;63.20;100361.65;107086;1257;72884;-73
2023/05/19 05:53:43;;;;;;;9.50;6.10;;;;;;;19.24;63.12;100368.02;107254;1254;59935;-73
2023/05/19 05:56:11;;;;;;;10.50;6.30;;;;;;;19.26;63.08;100373.66;107048;1254;59705;-73
2023/05/19 05:58:43;;;;;;;12.10;7.90;;;;;;;19.28;63.16;100379.54;107050;1257;73049;-73
2023/05/19 06:01:10;;;;;;;9.10;7.20;;;;;;;19.30;63.41;100379.24;106752;1252;68719;-69
2023/05/19 06:03:39;;;;;;;9.10;6.50;;;;;;;19.32;63.31;100382.98;107168;1251;73873;-73
2023/05/19 06:06:07;;;;;;;11.50;6.60;;;;;;;19.33;63.27;100381.02;106621;1257;60247;-70
2023/05/19 06:08:35;;;;;;;8.70;6.60;;;;;;;19.34;63.33;100378.73;106946;1257;61225;-70
2023/05/19 06:11:08;;;;;;;9.70;6.50;;;;;;;19.35;63.48;100382.76;107560;1253;72307;-72
2023/05/19 06:13:37;;;;;;;10.30;6.30;;;;;;;19.35;63.60;100379.48;108333;1257;71245;-70
2023/05/19 06:16:06;;;;;;;13.30;7.10;;;;;;;19.36;63.59;100381.48;108216;1258;72543;-70
2023/05/19 06:18:39;;;;;;;;;;;;;;;19.40;63.64;100387.36;108567;1251;60096;-72
2023/05/19 06:21:05;;;;;;;10.70;7.40;;;;;;;19.44;63.50;100384.35;108684;1251;59118;-72
2023/05/19 06:23:32;;;;;;;9.00;6.80;;;;;;;19.44;63.48;100386.55;107985;1251;73488;-70
2023/05/19 06:25:59;;;;;;;12.40;6.80;;;;;;;19.46;63.08;100385.84;108124;1251;69257;-71
2023/05/19 06:28:26;;;;;;;8.40;7.40;;;;;;;19.50;63.09;100386.13;108074;1256;70963;-71
2023/05/19 06:30:55;;;;;;;8.20;7.20;;;;;;;19.55;62.90;100388.60;108088;1251;59604;-73
2023/05/19 06:33:42;;;;;;;9.40;7.30;;;;;;;19.60;62.51;100388.72;108111;1251;59626;-70
2023/05/19 06:36:09;;;;;;;9.20;7.00;;;;;;;19.66;62.38;100387.05;106870;1253;71323;-69
2023/05/19 06:38:37;;;;;;;11.80;7.10;;;;;;;19.73;62.18;100388.87;107370;1254;70406;-70
2023/05/19 06:41:06;;;;;;;9.60;7.20;;;;;;;19.79;62.01;100392.83;107660;1254;70584;-72
2023/05/19 06:43:57;;;;;;;11.40;7.40;;;;;;;19.85;61.79;100389.37;108381;1251;59367;-73
2023/05/19 06:46:24;;;;;;;10.40;7.10;;;;;;;19.89;61.52;100391.52;107351;1251;59950;-71
2023/05/19 06:48:50;;;;;;;8.70;7.00;;;;;;;19.94;61.44;100393.44;107636;1254;74216;-72
2023/05/19 06:51:21;;;;;;;9.60;7.80;;;;;;;20.00;61.32;100390.05;107906;1251;70376;-74
2023/05/19 06:53:50;;;;;;;12.60;7.90;;;;;;;20.08;61.17;100389.19;107298;1255;71475;-70
2023/05/19 06:56:17;;;;;;;9.70;7.20;;;;;;;20.17;60.94;100393.25;107979;1251;59640;-71
2023/05/19 06:58:45;;;;;;;9.70;7.50;;;;;;;20.27;60.72;100388.51;107723;1251;59725;-71
2023/05/19 07:01:12;;;;;;;9.90;7.30;;;;;;;20.36;60.54;100387.09;108100;1253;71607;-72
2023/05/19 07:03:43;;;;;;;8.60;6.90;;;;;;;20.47;60.33;100390.00;109166;1253;69223;-72
2023/05/19 07:06:11;;;;;;;10.70;7.70;;;;;;;20.59;60.00;100392.81;109159;1251;72892;-73
2023/05/19 07:08:38;;;;;;;11.10;8.70;;;;;;;20.71;59.73;100394.41;109033;1253;59576;-72
2023/05/19 07:11:07;;;;;;;10.90;8.80;;;;;;;20.88;59.36;100395.19;106925;1254;60331;-72
2023/05/19 07:13:34;;;;;;;9.70;8.00;;;;;;;21.04;59.01;100393.77;107096;1254;72901;-73
2023/05/19 07:16:00;;;;;;;12.50;8.00;;;;;;;21.20;58.58;100393.71;107443;1252;70553;-73
2023/05/19 07:18:30;;;;;;;15.60;7.80;;;;;;;21.33;58.27;100395.95;109424;1252;71022;-71
2023/05/19 07:21:03;;;;;;;8.80;7.10;;;;;;;21.48;57.94;100399.77;109474;1251;60374;-72
2023/05/19 07:23:31;;;;;;;9.50;7.20;;;;;;;21.65;57.38;100399.17;107960;1251;60501;-72
2023/05/19 07:25:57;;;;;;;12.50;7.40;;;;;;;21.82;56.95;100401.02;108063;1253;72902;-73
2023/05/19 07:28:24;;;;;;;9.60;7.70;;;;;;;21.95;56.55;100408.36;108789;1251;70277;-72
2023/05/19 07:30:51;;;;;;;13.50;9.80;;;;;;;22.05;56.15;100407.90;107711;1251;72440;-70
2023/05/19 07:33:18;;;;;;;9.30;7.40;;;;;;;22.11;55.95;100409.52;106856;1254;60529;-70
2023/05/19 07:35:46;;;;;;;7.90;6.70;;;;;;;22.16;55.71;100413.24;106464;1250;60412;-72
2023/05/19 07:38:13;;;;;;;10.90;6.60;;;;;;;22.23;55.36;100408.52;106205;1251;74053;-73
2023/05/19 07:40:39;;;;;;;8.10;7.20;;;;;;;22.31;55.10;100413.02;106057;1254;70409;-72
2023/05/19 07:43:06;;;;;;;9.30;7.40;;;;;;;22.37;55.02;100411.71;106063;1252;72802;-73
2023/05/19 07:45:33;;;;;;;7.60;6.60;;;;;;;22.47;55.03;100413.16;106029;1254;60713;-74
2023/05/19 07:48:00;;;;;;;7.70;6.60;;;;;;;22.59;54.89;100407.52;106042;1251;60408;-70
2023/05/19 07:50:27;;;;;;;10.10;7.40;;;;;;;22.74;54.73;100406.84;105774;1253;73988;-73
2023/05/19 07:52:54;;;;;;;7.90;7.00;;;;;;;22.93;54.53;100403.17;105932;1251;69757;-71
2023/05/19 07:55:22;;;;;;;9.10;6.70;;;;;;;23.07;54.21;100401.16;105906;1256;71746;-71
2023/05/19 07:57:49;;;;;;;9.90;6.80;;;;;;;23.25;53.77;100396.92;105894;1257;60537;-74
2023/05/19 08:00:17;;;;;;;9.10;7.20;;;;;;;23.44;53.02;100397.01;106092;1251;60467;-74
2023/05/19 08:02:44;;;;;;;11.00;7.00;;;;;;;23.59;52.50;100400.77;106089;1257;73419;-74
2023/05/19 08:05:11;;;;;;;8.30;6.80;;;;;;;23.72;52.11;100397.56;106143;1251;70512;-71
2023/05/19 08:07:38;;;;;;;8.50;6.60;;;;;;;23.86;51.70;100396.22;106081;1254;72860;-70
2023/05/19 08:10:05;;;;;;;8.60;6.40;;;;;;;24.01;51.26;100397.20;106132;1253;60664;-71
2023/05/19 08:12:32;;;;;;;11.20;7.70;;;;;;;24.14;50.90;100396.97;106047;1254;60403;-73
2023/05/19 08:14:59;;;;;;;9.70;6.60;;;;;;;24.24;50.75;100399.05;106094;1255;72934;-74
2023/05/19 08:17:28;;;;;;;8.20;7.40;;;;;;;24.38;50.61;100401.27;106079;1256;69967;-72
2023/05/19 08:19:54;;;;;;;11.00;7.00;;;;;;;24.57;50.55;100401.80;106004;1251;71676;-72
2023/05/19 08:22:21;;;;;;;8.80;7.00;;;;;;;24.73;50.36;100399.95;105902;1251;60382;-73
2023/05/19 08:24:50;;;;;;;10.90;6.90;;;;;;;24.85;50.21;100403.64;105790;1253;60501;-71
2023/05/19 08:27:17;;;;;;;8.70;6.70;;;;;;;24.93;50.12;100407.41;105827;1254;74368;-69
2023/05/19 08:29:44;;;;;;;9.80;6.80;;;;;;;25.00;49.67;100404.36;105907;1251;69393;-74
2023/05/19 08:32:10;;;;;;;8.40;6.90;;;;;;;25.03;49.42;100405.23;105914;1252;70516;-74
2023/05/19 08:34:40;;;;;;;7.80;7.00;;;;;;;25.06;49.12;100405.45;105976;1250;60511;-70
2023/05/19 08:37:06;;;;;;;10.00;6.80;;;;;;;25.14;48.87;100410.02;105969;1251;60466;-72
2023/05/19 08:39:35;;;;;;;7.40;6.40;;;;;;;25.20;48.10;100407.88;105925;1251;73076;-74
2023/05/19 08:42:02;;;;;;;7.00;6.40;;;;;;;25.17;47.74;100410.72;105878;1253;68204;-72
2023/05/19 08:44:30;;;;;;;8.40;6.60;;;;;;;25.15;47.46;100408.63;105888;1251;72954;-73
2023/05/19 08:46:57;;;;;;;11.10;7.80;;;;;;;25.16;47.66;100412.02;105893;1256;60443;-73
2023/05/19 08:49:27;;;;;;;8.80;7.20;;;;;;;25.24;47.72;100405.96;105808;1258;61838;-73
2023/05/19 08:51:56;;;;;;;9.60;7.50;;;;;;;25.25;47.50;100406.42;105981;1251;71985;-70
2023/05/19 08:54:24;;;;;;;8.20;7.40;;;;;;;25.27;47.42;100409.77;105996;1256;70491;-74
2023/05/19 08:56:51;;;;;;;9.90;7.50;;;;;;;25.25;47.26;100414.02;106095;1254;73931;-71
2023/05/19 08:59:17;;;;;;;8.40;7.60;;;;;;;25.28;47.32;100415.70;105729;1257;60528;-73
2023/05/19 09:01:45;;;;;;;9.10;7.40;;;;;;;25.34;47.50;100417.37;105773;1253;60464;-72
2023/05/19 09:04:12;;;;;;;9.50;8.50;;;;;;;25.36;47.78;100420.45;105846;1257;74680;-71
2023/05/19 09:06:43;;;;;;;9.40;8.00;;;;;;;25.30;47.97;100416.50;105992;1251;71345;-72
2023/05/19 09:09:10;;;;;;;11.30;9.10;;;;;;;25.27;48.26;100417.45;105841;1251;73793;-73
2023/05/19 09:11:37;;;;;;;12.40;9.30;;;;;;;25.27;48.53;100420.10;105861;1251;60596;-73
2023/05/19 09:14:04;;;;;;;11.80;9.30;;;;;;;25.36;48.53;100424.42;105987;1251;61466;-73
2023/05/19 09:16:32;;;;;;;10.20;9.20;;;;;;;25.54;48.25;100421.58;105945;1256;73972;-72
2023/05/19 09:18:59;;;;;;;10.70;8.90;;;;;;;25.69;47.82;100418.30;105924;1253;71521;-74
2023/05/19 09:21:29;;;;;;;10.10;8.60;;;;;;;25.83;47.36;100411.94;105962;1251;73522;-73
2023/05/19 09:23:58;;;;;;;10.50;9.20;;;;;;;25.99;46.26;100415.70;106090;1254;60312;-72
2023/05/19 09:26:24;;;;;;;10.30;8.60;;;;;;;26.24;45.85;100415.11;106158;1251;60642;-75
2023/05/19 09:28:54;;;;;;;11.20;8.50;;;;;;;26.59;45.39;100413.17;105733;1253;73411;-75
2023/05/19 09:31:23;;;;;;;;;;;;;;;27.08;44.93;100411.16;105796;1254;70172;-74
2023/05/19 09:33:52;;;;;;;10.40;9.30;;;;;;;27.52;44.01;100404.05;105868;1250;73877;-74
2023/05/19 09:36:19;;;;;;;10.40;8.60;;;;;;;27.91;43.21;100403.48;105937;1250;60431;-72
2023/05/19 09:38:46;;;;;;;12.80;9.00;;;;;;;28.43;42.39;100398.55;105820;1251;60428;-75
2023/05/19 09:41:13;;;;;;;12.70;9.80;;;;;;;29.01;41.90;100392.59;105769;1257;72584;-75
2023/05/19 09:43:40;;;;;;;11.70;9.80;;;;;;;29.68;41.50;100388.65;105825;1257;68674;-74
2023/05/19 09:46:09;;;;;;;10.60;9.10;;;;;;;30.40;40.48;100385.73;105894;1255;72393;-72
2023/05/19 09:48:41;;;;;;;10.10;9.00;;;;;;;30.96;39.26;100395.95;105919;1251;60951;-73
2023/05/19 09:51:09;;;;;;;9.90;9.00;;;;;;;31.19;38.25;100395.48;105914;1251;60424;-74
2023/05/19 09:53:37;;;;;;;9.50;8.50;;;;;;;31.15;38.07;100396.43;105826;1251;75278;-75
2023/05/19 09:56:04;;;;;;;10.10;8.60;;;;;;;31.00;37.72;100397.56;105953;1253;70387;-75
2023/05/19 09:58:33;;;;;;;12.60;9.00;;;;;;;30.79;37.72;100401.79;105953;1256;70591;-74
2023/05/19 10:01:00;;;;;;;11.10;9.90;;;;;;;30.49;38.42;100395.27;106184;1251;61072;-73
2023/05/19 10:03:27;;;;;;;12.80;9.90;;;;;;;30.23;38.79;100393.50;105798;1254;60553;-74
2023/05/19 10:05:54;;;;;;;11.30;10.10;;;;;;;29.93;39.29;100400.35;105973;1253;73677;-73
2023/05/19 10:08:22;;;;;;;11.20;9.60;;;;;;;29.76;39.69;100400.10;106116;1250;70071;-72
2023/05/19 10:10:49;;;;;;;10.60;9.50;;;;;;;29.75;39.77;100395.45;105905;1251;72072;-74
2023/05/19 10:13:16;;;;;;;11.20;9.70;;;;;;;29.81;39.87;100392.85;105894;1251;60496;-72
2023/05/19 10:15:44;;;;;;;10.40;9.30;;;;;;;29.93;39.86;100394.27;105773;1256;60349;-74
2023/05/19 10:18:25;;;;;;;11.80;9.20;;;;;;;30.25;39.47;100391.52;105864;1256;73854;-74
2023/05/19 10:20:52;;;;;;;9.60;8.70;;;;;;;30.69;39.15;100390.95;105905;1256;69226;-73
2023/05/19 10:23:18;;;;;;;9.70;8.30;;;;;;;31.15;38.29;100392.20;105755;1253;73712;-75
2023/05/19 10:25:45;;;;;;;10.10;8.00;;;;;;;31.57;37.65;100391.98;105883;1251;60422;-73
2023/05/19 10:28:13;;;;;;;10.40;7.90;;;;;;;31.80;37.33;100390.52;105758;1260;60438;-75
2023/05/19 10:30:43;;;;;;;11.00;8.50;;;;;;;31.94;37.25;100389.66;106000;1251;73945;-74
2023/05/19 10:33:11;;;;;;;11.90;8.30;;;;;;;31.99;37.31;100392.63;106145;1255;69613;-72
2023/05/19 10:35:52;;;;;;;8.70;7.70;;;;;;;32.05;37.13;100387.35;105997;1253;71277;-73
2023/05/19 10:38:25;;;;;;;8.70;7.50;;;;;;;32.02;36.92;100392.93;105777;1254;60532;-74
2023/05/19 10:41:17;;;;;;;9.60;7.70;;;;;;;31.91;36.99;100383.45;106020;1254;60443;-75
2023/05/19 10:44:07;;;;;;;8.00;7.00;;;;;;;31.97;37.09;100390.06;105890;1253;72895;-75
2023/05/19 10:46:34;;;;;;;9.90;7.00;;;;;;;32.31;36.56;100388.79;105917;1256;70865;-72
2023/05/19 10:49:01;;;;;;;7.00;6.30;;;;;;;32.47;36.20;100386.06;106071;1256;71235;-73
2023/05/19 10:51:31;;;;;;;7.00;6.10;;;;;;;32.51;35.89;100383.97;105922;1253;60508;-73
2023/05/19 10:54:01;;;;;;;11.70;7.00;;;;;;;32.44;36.07;100388.19;105728;1253;61569;-74
2023/05/19 10:56:31;;;;;;;7.00;6.20;;;;;;;32.24;36.19;100383.83;105859;1257;73155;-74
2023/05/19 10:58:58;;;;;;;10.00;7.10;;;;;;;32.00;36.42;100385.38;106017;1251;70567;-73
2023/05/19 11:01:34;;;;;;;8.80;6.40;;;;;;;31.69;36.92;100385.81;105804;1257;70880;-73
2023/05/19 11:04:12;;;;;;;8.60;6.70;;;;;;;31.36;37.05;100388.53;105797;1253;61976;-74
2023/05/19 11:06:40;;;;;;;7.30;6.50;;;;;;;31.05;37.27;100386.21;105854;1253;60411;-74
2023/05/19 11:09:14;;;;;;;7.10;6.10;;;;;;;30.76;37.67;100388.80;105887;1253;73863;-73
2023/05/19 11:11:51;;;;;;;9.30;6.20;;;;;;;30.69;37.85;100393.48;105964;1253;69370;-74
2023/05/19 11:14:19;;;;;;;6.90;6.30;;;;;;;31.04;37.81;100399.45;105858;1251;71589;-74
2023/05/19 11:16:47;;;;;;;8.10;7.30;;;;;;;31.47;37.62;100396.71;106028;1251;60625;-74
2023/05/19 11:19:29;;;;;;;8.40;6.90;;;;;;;32.03;37.67;100397.86;106078;1250;60418;-74
2023/05/19 11:22:06;;;;;;;7.90;7.20;;;;;;;32.91;36.87;100396.42;105890;1253;73586;-73